Time;durP1;ratioP1;P1;durP2;ratioP2;P2;SDS_P1;SDS_P2;PMS_P1;PMS_P2;Temp;Humidity;BMP_temperature;BMP_pressure;BME280_temperature;BME280_humidity;BME280_pressure;Samples;Min_cycle;Max_cycle;Signal;HPM_P1;HPM_P2
2021/12/02 00:02:14;;;;;;;19.23;6.50;;;10.30;99.90;;;;;;4881254;29;20045;-74
2021/12/02 00:04:40;;;;;;;20.38;6.25;;;10.30;99.90;;;;;;4849843;29;20432;-74
2021/12/02 00:07:07;;;;;;;14.52;5.35;;;10.40;99.90;;;;;;4863325;29;20141;-73
2021/12/02 00:09:34;;;;;;;15.00;5.07;;;10.30;99.90;;;;;;4874248;29;20034;-74
2021/12/02 00:12:00;;;;;;;13.52;5.03;;;10.40;99.90;;;;;;4862760;29;20451;-74
2021/12/02 00:14:28;;;;;;;17.70;4.50;;;10.40;99.90;;;;;;4872260;29;20108;-75
2021/12/02 00:22:11;;;;;;;14.98;4.00;;;10.40;99.90;;;;;;4879615;29;20077;-73
2021/12/02 00:24:39;;;;;;;12.25;4.85;;;10.40;99.90;;;;;;4881464;29;20033;-79
2021/12/02 00:27:09;;;;;;;11.23;4.80;;;10.40;99.90;;;;;;4880900;29;20032;-73
2021/12/02 00:29:38;;;;;;;19.48;5.13;;;10.40;99.90;;;;;;4879766;29;20037;-73
2021/12/02 00:32:07;;;;;;;12.85;4.88;;;10.40;99.90;;;;;;4880770;29;20124;-74
2021/12/02 00:34:34;;;;;;;13.85;4.72;;;10.40;99.90;;;;;;4860845;29;20085;-74
2021/12/02 00:37:01;;;;;;;15.32;4.28;;;10.40;99.90;;;;;;4862065;29;20033;-73
2021/12/02 00:39:29;;;;;;;17.67;4.35;;;10.30;99.90;;;;;;4861795;29;20045;-73
2021/12/02 00:41:56;;;;;;;12.68;4.55;;;10.30;99.90;;;;;;4862468;29;20053;-74
2021/12/02 00:44:22;;;;;;;16.33;4.75;;;10.30;99.90;;;;;;4862565;29;20033;-73
2021/12/02 00:46:49;;;;;;;23.08;5.22;;;10.30;99.90;;;;;;4862333;29;20049;-73
2021/12/02 00:49:18;;;;;;;13.02;4.65;;;10.30;99.90;;;;;;4863243;29;20116;-73
2021/12/02 00:51:56;;;;;;;14.60;4.72;;;10.30;99.90;;;;;;4862314;29;20041;-74
2021/12/02 00:54:24;;;;;;;14.07;5.18;;;10.30;99.90;;;;;;4866700;29;20510;-74
2021/12/02 00:56:51;;;;;;;18.90;5.05;;;10.30;99.90;;;;;;4878913;29;20045;-73
2021/12/02 00:59:17;;;;;;;20.23;5.57;;;10.30;99.90;;;;;;4880460;29;20116;-73
2021/12/02 01:01:44;;;;;;;16.38;5.80;;;10.20;99.90;;;;;;4863468;29;20044;-73
2021/12/02 01:04:14;;;;;;;15.40;5.57;;;10.20;99.90;;;;;;4878868;29;21193;-74
2021/12/02 01:06:40;;;;;;;20.27;5.55;;;10.20;99.90;;;;;;4879412;29;20056;-73
2021/12/02 01:09:09;;;;;;;16.63;4.88;;;10.20;99.90;;;;;;4845264;29;20396;-73
2021/12/02 01:11:35;;;;;;;17.00;5.35;;;10.20;99.90;;;;;;4862029;29;20045;-73
2021/12/02 01:14:01;;;;;;;19.17;4.68;;;10.20;99.90;;;;;;4868788;29;20041;-73
2021/12/02 01:16:27;;;;;;;29.02;6.80;;;10.20;99.90;;;;;;4880352;29;20051;-78
2021/12/02 01:18:53;;;;;;;21.05;5.20;;;10.20;99.90;;;;;;4878455;29;20025;-73
2021/12/02 01:21:22;;;;;;;24.27;5.07;;;10.20;99.90;;;;;;4879939;29;20562;-73
2021/12/02 01:23:51;;;;;;;25.30;5.10;;;10.20;99.90;;;;;;4880188;29;20101;-73
2021/12/02 01:26:18;;;;;;;26.25;4.90;;;10.20;99.90;;;;;;4879958;29;20041;-73
2021/12/02 01:28:45;;;;;;;22.35;4.78;;;10.30;99.90;;;;;;4879402;29;20056;-73
2021/12/02 01:31:12;;;;;;;16.10;4.65;;;10.30;99.90;;;;;;4879525;29;20037;-73
2021/12/02 01:33:40;;;;;;;16.55;3.78;;;10.30;99.90;;;;;;4879987;29;20052;-73
2021/12/02 01:36:06;;;;;;;21.35;4.38;;;10.30;99.90;;;;;;4877760;29;20033;-74
2021/12/02 01:38:33;;;;;;;14.82;3.97;;;10.30;99.90;;;;;;4879460;29;20072;-73
2021/12/02 01:41:02;;;;;;;17.17;4.75;;;10.30;99.90;;;;;;4863768;29;20594;-74
2021/12/02 01:43:36;;;;;;;15.45;4.18;;;10.30;99.90;;;;;;4861228;29;20038;-73
2021/12/02 01:46:03;;;;;;;21.45;5.35;;;10.30;99.90;;;;;;4861105;29;20049;-73
2021/12/02 01:48:31;;;;;;;19.48;5.47;;;10.30;99.90;;;;;;4861284;29;20034;-73
2021/12/02 01:51:03;;;;;;;20.45;5.38;;;10.30;99.90;;;;;;4862002;29;20041;-73
2021/12/02 01:53:35;;;;;;;22.48;5.18;;;10.30;99.90;;;;;;4861168;29;20025;-73
2021/12/02 01:56:14;;;;;;;21.00;4.68;;;10.30;99.90;;;;;;4874965;29;20047;-73
2021/12/02 01:58:51;;;;;;;24.40;5.20;;;10.30;99.90;;;;;;4879675;29;20041;-72
2021/12/02 02:01:27;;;;;;;15.93;5.13;;;10.30;99.90;;;;;;4842769;29;20045;-73
2021/12/02 02:03:55;;;;;;;15.70;5.00;;;10.30;99.90;;;;;;4844458;29;20042;-73
2021/12/02 02:06:30;;;;;;;24.13;5.32;;;10.30;99.90;;;;;;4861680;29;20120;-73
2021/12/02 02:08:58;;;;;;;26.00;4.88;;;10.30;99.90;;;;;;4860817;29;20034;-73
2021/12/02 02:11:29;;;;;;;15.38;4.32;;;10.30;99.90;;;;;;4860725;29;20109;-74
2021/12/02 02:13:56;;;;;;;14.45;4.15;;;10.30;99.90;;;;;;4863248;29;20057;-73
2021/12/02 02:16:23;;;;;;;17.35;4.55;;;10.30;99.90;;;;;;4879383;29;20037;-73
2021/12/02 02:18:49;;;;;;;16.00;4.70;;;10.30;99.90;;;;;;4877650;29;20044;-73
2021/12/02 02:21:17;;;;;;;16.90;4.38;;;10.30;99.90;;;;;;4879244;29;20478;-73
2021/12/02 02:23:50;;;;;;;18.83;4.32;;;10.20;99.90;;;;;;4879300;29;20044;-74
2021/12/02 02:26:22;;;;;;;16.08;4.07;;;10.20;99.90;;;;;;4878870;29;20044;-73
2021/12/02 02:28:49;;;;;;;14.10;3.53;;;10.20;99.90;;;;;;4878908;29;20085;-73
2021/12/02 02:31:15;;;;;;;10.38;3.83;;;10.20;99.90;;;;;;4878418;29;20073;-73
2021/12/02 02:33:41;;;;;;;15.40;4.18;;;10.20;99.90;;;;;;4879168;29;20085;-73
2021/12/02 02:36:08;;;;;;;8.65;3.30;;;10.30;99.90;;;;;;4877433;29;20045;-73
2021/12/02 02:38:36;;;;;;;11.55;3.53;;;10.20;99.90;;;;;;4878652;29;20051;-73
2021/12/02 02:41:04;;;;;;;17.75;3.92;;;10.20;99.90;;;;;;4876621;29;20041;-73
2021/12/02 02:43:31;;;;;;;14.52;4.32;;;10.30;99.90;;;;;;4878698;29;20138;-73
2021/12/02 02:45:58;;;;;;;18.27;4.25;;;10.30;99.90;;;;;;4865878;29;20471;-73
2021/12/02 02:48:24;;;;;;;19.38;3.83;;;10.30;99.90;;;;;;4860175;29;20036;-73
2021/12/02 02:50:49;;;;;;;23.25;4.10;;;10.30;99.90;;;;;;4860384;29;20041;-73
2021/12/02 02:53:21;;;;;;;15.10;3.70;;;10.30;99.90;;;;;;4860271;29;20049;-73
2021/12/02 02:56:08;;;;;;;12.45;4.15;;;10.30;99.90;;;;;;4866069;29;20030;-74
2021/12/02 03:07:21;;;;;;;20.97;4.13;;;10.40;99.90;;;;;;4860125;29;20466;-82
2021/12/02 03:11:53;;;;;;;12.20;4.05;;;10.40;99.90;;;;;;4860230;29;20470;-73
2021/12/02 03:14:31;;;;;;;18.60;4.63;;;10.40;99.90;;;;;;4861093;29;20045;-75
2021/12/02 03:16:57;;;;;;;13.60;4.18;;;10.40;99.90;;;;;;4859919;29;20033;-73
2021/12/02 03:19:28;;;;;;;10.00;3.60;;;10.40;99.90;;;;;;4864573;29;20060;-80
2021/12/02 03:21:55;;;;;;;12.50;3.97;;;10.40;99.90;;;;;;4876520;29;20037;-73
2021/12/02 03:24:22;;;;;;;11.63;3.85;;;10.40;99.90;;;;;;4878299;29;20123;-73
2021/12/02 03:26:48;;;;;;;14.73;3.78;;;10.40;99.90;;;;;;4861650;29;20029;-73
2021/12/02 03:29:14;;;;;;;15.05;3.78;;;10.40;99.90;;;;;;4878593;29;20041;-73
2021/12/02 03:31:40;;;;;;;16.00;3.78;;;10.50;99.90;;;;;;4877933;29;20045;-73
2021/12/02 03:34:07;;;;;;;12.80;3.30;;;10.50;99.90;;;;;;4878453;29;20029;-76
2021/12/02 03:36:34;;;;;;;13.02;4.07;;;10.60;99.90;;;;;;4876885;29;20052;-81
2021/12/02 03:39:01;;;;;;;13.10;4.22;;;10.60;99.90;;;;;;4878394;29;20128;-73
2021/12/02 03:41:27;;;;;;;19.23;3.50;;;10.70;99.90;;;;;;4878261;29;20060;-73
2021/12/02 03:43:53;;;;;;;14.50;3.45;;;10.70;99.90;;;;;;4878468;29;20060;-73
2021/12/02 03:46:24;;;;;;;20.02;4.80;;;10.80;99.90;;;;;;4876797;29;20117;-72
2021/12/02 03:48:51;;;;;;;11.18;3.35;;;10.70;99.90;;;;;;4875795;29;20571;-73
2021/12/02 03:51:17;;;;;;;17.88;4.50;;;10.70;99.90;;;;;;4878141;29;20040;-74
2021/12/02 03:53:43;;;;;;;18.77;5.93;;;10.70;99.90;;;;;;4878122;29;20037;-73
2021/12/02 03:56:09;;;;;;;19.88;4.80;;;10.70;99.90;;;;;;4874381;29;20033;-76
2021/12/02 03:58:37;;;;;;;16.50;5.05;;;10.70;99.90;;;;;;4877588;29;20387;-74
2021/12/02 04:01:05;;;;;;;14.70;4.30;;;10.80;99.90;;;;;;4876355;29;20064;-73
2021/12/02 04:03:31;;;;;;;18.60;3.90;;;10.80;99.90;;;;;;4877966;29;20398;-74
2021/12/02 04:05:56;;;;;;;17.15;4.88;;;10.70;99.90;;;;;;4878209;29;20029;-73
2021/12/02 04:08:29;;;;;;;21.13;4.97;;;10.70;99.90;;;;;;4868239;29;20546;-73
2021/12/02 04:11:10;;;;;;;17.75;5.28;;;10.70;99.90;;;;;;4863751;29;20112;-74
2021/12/02 04:13:40;;;;;;;19.80;3.95;;;10.70;99.90;;;;;;4874502;29;20082;-73
2021/12/02 04:16:14;;;;;;;25.50;4.85;;;10.70;99.90;;;;;;4879779;29;20074;-73
2021/12/02 04:18:39;;;;;;;28.48;4.30;;;10.70;99.90;;;;;;4881339;29;20069;-73
2021/12/02 04:21:05;;;;;;;11.95;4.03;;;10.80;99.90;;;;;;4863343;29;20399;-73
2021/12/02 04:23:30;;;;;;;16.58;4.72;;;10.80;99.90;;;;;;4862622;29;20069;-73
2021/12/02 04:25:56;;;;;;;26.13;4.85;;;10.80;99.90;;;;;;4862596;29;20045;-74
2021/12/02 04:28:22;;;;;;;16.23;3.95;;;10.80;99.90;;;;;;4862226;29;20383;-73
2021/12/02 04:30:48;;;;;;;21.10;4.80;;;10.90;99.90;;;;;;4878261;29;20037;-73
2021/12/02 04:33:13;;;;;;;21.30;3.83;;;11.00;99.90;;;;;;4880715;29;20044;-73
2021/12/02 04:35:39;;;;;;;34.13;4.28;;;11.10;99.90;;;;;;4865299;29;20054;-73
2021/12/02 04:38:05;;;;;;;12.75;4.40;;;11.10;99.90;;;;;;4862641;29;20038;-73
2021/12/02 04:40:30;;;;;;;27.27;4.93;;;11.10;99.90;;;;;;4863609;29;20097;-76
2021/12/02 04:42:56;;;;;;;17.95;4.53;;;11.10;99.90;;;;;;4862218;29;20070;-73
2021/12/02 04:45:22;;;;;;;17.02;3.47;;;11.10;99.90;;;;;;4863134;29;20414;-73
2021/12/02 04:47:47;;;;;;;21.23;4.22;;;11.10;99.90;;;;;;4862298;29;20033;-73
2021/12/02 04:50:13;;;;;;;14.85;3.65;;;11.10;99.90;;;;;;4862365;29;20128;-74
2021/12/02 04:52:39;;;;;;;19.05;3.15;;;11.20;99.90;;;;;;4861978;29;20045;-74
2021/12/02 04:55:07;;;;;;;15.88;3.63;;;11.10;99.90;;;;;;4865853;29;20032;-75
2021/12/02 04:57:32;;;;;;;24.52;4.88;;;11.10;99.90;;;;;;4880614;29;20037;-72
2021/12/02 04:59:58;;;;;;;22.25;4.80;;;11.10;99.90;;;;;;4878811;29;20045;-71
2021/12/02 05:02:24;;;;;;;21.45;4.47;;;11.10;99.90;;;;;;4880189;29;20037;-76
2021/12/02 05:04:49;;;;;;;25.70;6.78;;;11.10;99.90;;;;;;4880403;29;20095;-72
2021/12/02 05:07:15;;;;;;;19.80;5.40;;;11.10;99.90;;;;;;4880034;29;20032;-73
2021/12/02 05:09:41;;;;;;;22.23;5.53;;;11.10;99.90;;;;;;4880224;29;20037;-72
2021/12/02 05:12:07;;;;;;;30.30;6.30;;;11.20;99.90;;;;;;4880220;29;20132;-72
2021/12/02 05:14:32;;;;;;;18.08;3.88;;;11.20;99.90;;;;;;4879106;29;20045;-72
2021/12/02 05:16:58;;;;;;;25.15;5.43;;;11.20;99.90;;;;;;4873807;29;20045;-79
2021/12/02 05:19:24;;;;;;;17.95;4.85;;;11.20;99.90;;;;;;4861593;29;20049;-81
2021/12/02 05:21:49;;;;;;;22.55;5.30;;;11.20;99.90;;;;;;4862524;29;20066;-71
2021/12/02 05:24:15;;;;;;;17.15;4.15;;;11.20;99.90;;;;;;4880121;29;20124;-72
2021/12/02 05:26:41;;;;;;;24.45;6.20;;;11.20;99.90;;;;;;4880197;29;20101;-73
2021/12/02 05:29:06;;;;;;;27.15;4.50;;;11.20;99.90;;;;;;4877654;29;20528;-77
2021/12/02 05:31:32;;;;;;;23.02;4.22;;;11.20;99.90;;;;;;4880068;29;20041;-74
2021/12/02 05:33:58;;;;;;;29.40;4.78;;;11.20;99.90;;;;;;4877959;29;20482;-72
2021/12/02 05:36:24;;;;;;;20.50;4.18;;;11.20;99.90;;;;;;4861497;29;20162;-80
2021/12/02 05:38:49;;;;;;;27.83;4.55;;;11.20;99.90;;;;;;4862207;29;20046;-73
2021/12/02 05:41:16;;;;;;;27.27;6.93;;;11.20;99.90;;;;;;4879965;29;20443;-72
2021/12/02 05:43:42;;;;;;;30.48;7.88;;;11.10;99.90;;;;;;4877783;29;20029;-73
2021/12/02 05:46:08;;;;;;;33.20;8.80;;;11.10;99.90;;;;;;4862898;29;20413;-73
2021/12/02 05:48:34;;;;;;;28.33;10.43;;;11.10;99.90;;;;;;4877827;29;20120;-72
2021/12/02 05:51:00;;;;;;;25.38;8.40;;;11.10;99.90;;;;;;4879594;29;20100;-72
2021/12/02 05:53:26;;;;;;;31.88;6.85;;;11.10;99.90;;;;;;4876008;29;20128;-72
2021/12/02 05:55:52;;;;;;;23.52;7.18;;;11.10;99.90;;;;;;4877872;29;20429;-77
2021/12/02 05:58:17;;;;;;;22.02;6.57;;;11.10;99.90;;;;;;4858761;29;20095;-73
2021/12/02 06:00:43;;;;;;;27.65;6.25;;;11.10;99.90;;;;;;4862169;29;20046;-73
2021/12/02 06:03:09;;;;;;;26.63;5.63;;;11.10;99.90;;;;;;4861244;29;20058;-73
2021/12/02 06:05:35;;;;;;;32.28;6.80;;;11.10;99.90;;;;;;4861282;29;20060;-73
2021/12/02 06:08:03;;;;;;;29.00;6.68;;;11.10;99.90;;;;;;4879175;29;20487;-74
2021/12/02 06:10:29;;;;;;;25.90;5.47;;;11.10;99.90;;;;;;4879207;29;20053;-73
2021/12/02 06:12:56;;;;;;;32.58;6.80;;;11.10;99.90;;;;;;4878372;29;20080;-76
2021/12/02 06:15:22;;;;;;;20.75;5.78;;;11.10;99.90;;;;;;4868658;29;20033;-74
2021/12/02 06:17:47;;;;;;;40.92;6.65;;;11.10;99.90;;;;;;4860870;29;20045;-77
2021/12/02 06:20:17;;;;;;;22.92;5.88;;;11.10;99.90;;;;;;4861673;29;20120;-78
2021/12/02 06:22:43;;;;;;;25.88;6.68;;;11.10;99.90;;;;;;4844560;29;20037;-83
2021/12/02 06:27:42;;;;;;;30.92;7.13;;;11.10;99.90;;;;;;4860222;29;20462;-76
2021/12/02 06:30:08;;;;;;;22.15;7.07;;;11.10;99.90;;;;;;4864624;29;20475;-77
2021/12/02 06:32:34;;;;;;;28.25;7.63;;;11.10;99.90;;;;;;4860655;29;20061;-77
2021/12/02 06:34:59;;;;;;;29.20;6.47;;;11.10;99.90;;;;;;4861551;29;20181;-77
2021/12/02 06:37:26;;;;;;;31.55;9.80;;;11.10;99.90;;;;;;4860809;29;20073;-78
2021/12/02 06:39:52;;;;;;;33.13;10.30;;;11.10;99.90;;;;;;4860044;29;20045;-77
2021/12/02 06:42:18;;;;;;;38.60;13.02;;;11.10;99.90;;;;;;4858868;29;20476;-74
2021/12/02 06:44:44;;;;;;;35.10;12.75;;;11.10;99.90;;;;;;4858701;29;20106;-73
2021/12/02 06:47:09;;;;;;;35.20;12.10;;;11.00;99.90;;;;;;4861320;29;20033;-76
2021/12/02 06:49:35;;;;;;;35.38;10.38;;;11.10;99.90;;;;;;4860554;29;20394;-74
2021/12/02 06:52:03;;;;;;;25.23;9.88;;;11.10;99.90;;;;;;4861230;29;20128;-73
2021/12/02 06:54:29;;;;;;;28.73;9.63;;;11.10;99.90;;;;;;4843301;29;20501;-75
2021/12/02 06:56:55;;;;;;;28.35;10.57;;;11.10;99.90;;;;;;4861473;29;20041;-73
2021/12/02 06:59:20;;;;;;;23.77;10.85;;;11.10;99.90;;;;;;4864458;29;20037;-78
2021/12/02 07:01:47;;;;;;;30.00;10.02;;;11.10;99.90;;;;;;4878715;29;20072;-74
2021/12/02 07:04:13;;;;;;;24.88;9.73;;;11.10;99.90;;;;;;4877088;29;20045;-74
2021/12/02 07:06:39;;;;;;;18.88;9.55;;;11.10;99.90;;;;;;4878455;29;20029;-74
2021/12/02 07:09:06;;;;;;;25.65;11.55;;;11.10;99.90;;;;;;4876841;29;20025;-74
2021/12/02 07:11:32;;;;;;;23.45;9.82;;;11.00;99.90;;;;;;4878953;29;20033;-74
2021/12/02 07:14:05;;;;;;;25.05;11.30;;;11.10;99.90;;;;;;4872499;29;20078;-74
2021/12/02 07:16:32;;;;;;;27.25;11.07;;;11.10;99.90;;;;;;4843360;29;20061;-74
2021/12/02 07:18:59;;;;;;;25.48;12.05;;;11.00;99.90;;;;;;4860890;29;20543;-74
2021/12/02 07:21:25;;;;;;;20.70;10.93;;;11.00;99.90;;;;;;4863897;29;20037;-74
2021/12/02 07:23:51;;;;;;;26.85;11.52;;;11.00;99.90;;;;;;4877477;29;20059;-75
2021/12/02 07:26:17;;;;;;;26.50;12.10;;;11.00;99.90;;;;;;4878257;29;20041;-74
2021/12/02 07:28:47;;;;;;;16.00;11.32;;;11.00;99.90;;;;;;4878078;29;20034;-76
2021/12/02 07:31:13;;;;;;;18.08;11.35;;;11.00;99.90;;;;;;4859817;29;20100;-73
2021/12/02 07:33:48;;;;;;;19.00;11.40;;;11.00;99.90;;;;;;4858464;29;20113;-75
2021/12/02 07:36:15;;;;;;;16.63;10.13;;;10.90;99.90;;;;;;4860807;29;20044;-74
2021/12/02 07:38:41;;;;;;;16.85;9.60;;;10.90;99.90;;;;;;4859863;29;20061;-74
2021/12/02 07:41:07;;;;;;;17.25;9.68;;;10.90;99.90;;;;;;4866776;29;20145;-73
2021/12/02 07:43:35;;;;;;;15.00;9.50;;;11.00;99.90;;;;;;4880976;29;20109;-74
2021/12/02 07:46:01;;;;;;;18.73;10.15;;;11.00;99.90;;;;;;4881924;29;20034;-76
2021/12/02 07:48:27;;;;;;;15.88;8.57;;;11.00;99.90;;;;;;4864346;29;20065;-74
2021/12/02 07:50:56;;;;;;;16.73;8.70;;;10.90;99.90;;;;;;4863081;29;20407;-74
2021/12/02 07:53:24;;;;;;;15.48;7.60;;;11.00;99.90;;;;;;4863247;29;20049;-74
2021/12/02 07:55:52;;;;;;;22.38;7.65;;;11.00;99.90;;;;;;4862902;29;20057;-74
2021/12/02 07:58:21;;;;;;;16.05;7.22;;;11.00;99.90;;;;;;4863040;29;20049;-74
2021/12/02 08:00:47;;;;;;;16.30;8.65;;;10.90;99.90;;;;;;4861592;29;20109;-75
2021/12/02 08:03:13;;;;;;;15.98;6.88;;;11.00;99.90;;;;;;4881041;29;20041;-75
2021/12/02 08:05:40;;;;;;;21.70;11.05;;;10.90;99.90;;;;;;4863298;29;20037;-74
2021/12/02 08:08:06;;;;;;;13.40;6.88;;;10.90;99.90;;;;;;4880104;29;20057;-76
2021/12/02 08:10:32;;;;;;;14.15;6.70;;;10.90;99.90;;;;;;4880004;29;20491;-74
2021/12/02 08:13:00;;;;;;;10.88;5.70;;;10.90;99.90;;;;;;4880910;29;20037;-74
2021/12/02 08:15:27;;;;;;;13.20;5.22;;;10.80;99.90;;;;;;4864987;29;20120;-75
2021/12/02 08:17:55;;;;;;;11.38;5.90;;;10.80;99.90;;;;;;4881489;29;20037;-74
2021/12/02 08:20:23;;;;;;;17.58;6.32;;;10.80;99.90;;;;;;4881815;29;20065;-75
2021/12/02 08:22:49;;;;;;;12.43;6.40;;;10.80;99.90;;;;;;4881346;29;20188;-74
2021/12/02 08:25:16;;;;;;;13.93;6.28;;;10.80;99.90;;;;;;4881153;29;20033;-74
2021/12/02 08:27:42;;;;;;;14.13;5.68;;;10.70;99.90;;;;;;4881603;29;20044;-74
2021/12/02 08:30:11;;;;;;;10.73;6.45;;;10.80;99.90;;;;;;4880613;29;20165;-74
2021/12/02 08:32:41;;;;;;;14.73;6.68;;;10.70;99.90;;;;;;4881252;29;20430;-75
2021/12/02 08:35:08;;;;;;;18.73;6.85;;;10.70;99.90;;;;;;4864445;29;20037;-75
2021/12/02 08:37:37;;;;;;;13.98;6.82;;;10.70;99.90;;;;;;4881342;29;20041;-78
2021/12/02 08:40:04;;;;;;;14.35;6.40;;;10.70;99.90;;;;;;4877687;29;20049;-75
2021/12/02 08:42:33;;;;;;;10.68;6.32;;;10.70;99.90;;;;;;4861633;29;20048;-74
2021/12/02 08:45:00;;;;;;;8.82;6.07;;;10.70;99.90;;;;;;4862845;29;20038;-76
2021/12/02 08:47:28;;;;;;;11.15;4.75;;;10.70;99.90;;;;;;4862273;29;20041;-76
2021/12/02 08:49:55;;;;;;;13.80;5.15;;;10.80;99.90;;;;;;4878362;29;20490;-75
2021/12/02 08:52:22;;;;;;;11.68;4.28;;;10.80;99.90;;;;;;4876837;29;20458;-74
2021/12/02 08:54:49;;;;;;;8.15;4.20;;;10.80;99.90;;;;;;4864409;29;20418;-74
2021/12/02 08:57:17;;;;;;;17.38;4.88;;;10.90;99.90;;;;;;4861629;29;20044;-73
2021/12/02 08:59:44;;;;;;;8.15;4.35;;;10.90;99.90;;;;;;4862434;29;20026;-75
2021/12/02 09:02:10;;;;;;;10.70;4.60;;;11.00;99.90;;;;;;4861014;29;20026;-74
2021/12/02 09:04:36;;;;;;;10.20;4.65;;;11.00;99.90;;;;;;4844631;29;20709;-74
2021/12/02 09:07:02;;;;;;;10.45;4.40;;;11.00;99.90;;;;;;4861041;29;20041;-74
2021/12/02 09:09:28;;;;;;;8.40;4.22;;;11.00;99.90;;;;;;4863328;29;20022;-74
2021/12/02 09:11:55;;;;;;;8.85;4.13;;;11.00;99.90;;;;;;4864499;29;20116;-73
2021/12/02 09:14:21;;;;;;;14.45;5.25;;;11.00;99.90;;;;;;4871233;29;20120;-74
2021/12/02 09:16:48;;;;;;;8.93;4.30;;;11.10;99.90;;;;;;4861112;29;20109;-74
2021/12/02 09:19:14;;;;;;;10.30;5.13;;;11.10;99.90;;;;;;4860905;29;20044;-73
2021/12/02 09:21:40;;;;;;;10.73;4.70;;;11.10;99.90;;;;;;4844501;29;20030;-74
2021/12/02 09:24:05;;;;;;;13.30;5.47;;;11.10;99.90;;;;;;4860947;29;20033;-75
2021/12/02 09:26:31;;;;;;;11.90;5.75;;;11.00;99.90;;;;;;4860643;29;20033;-76
2021/12/02 09:28:58;;;;;;;12.35;6.15;;;11.00;99.90;;;;;;4861019;29;20068;-76
2021/12/02 09:31:24;;;;;;;9.75;5.47;;;11.00;99.90;;;;;;4860757;29;20034;-75
2021/12/02 09:33:50;;;;;;;11.90;5.57;;;11.00;99.90;;;;;;4861091;29;20390;-75
2021/12/02 09:36:17;;;;;;;9.30;5.40;;;11.00;99.90;;;;;;4861410;29;20300;-75
2021/12/02 09:38:43;;;;;;;12.75;6.35;;;10.90;99.90;;;;;;4860103;29;20105;-76
2021/12/02 09:41:09;;;;;;;12.07;6.70;;;10.90;99.90;;;;;;4859579;29;20112;-75
2021/12/02 09:43:35;;;;;;;11.32;6.45;;;10.90;99.90;;;;;;4861056;29;20530;-76
2021/12/02 09:46:01;;;;;;;15.43;5.85;;;10.90;99.90;;;;;;4844609;29;20071;-76
2021/12/02 09:48:28;;;;;;;6.93;3.60;;;10.90;99.90;;;;;;4861272;29;20044;-76
2021/12/02 09:51:18;;;;;;;7.32;3.92;;;10.90;99.90;;;;;;4844148;29;20033;-77
2021/12/02 09:53:55;;;;;;;9.25;4.78;;;10.90;99.90;;;;;;4860975;29;20073;-76
2021/12/02 09:56:27;;;;;;;23.02;4.82;;;10.90;99.90;;;;;;4862032;29;20480;-76
2021/12/02 09:58:57;;;;;;;8.18;4.93;;;10.90;99.90;;;;;;4861064;29;20034;-76
2021/12/02 10:01:36;;;;;;;11.85;5.00;;;10.90;99.90;;;;;;4844488;29;20042;-76
2021/12/02 10:04:04;;;;;;;6.28;4.65;;;11.00;99.90;;;;;;4861158;29;20033;-76
2021/12/02 10:06:31;;;;;;;9.73;4.10;;;11.00;99.90;;;;;;4852611;29;20043;-77
2021/12/02 10:09:13;;;;;;;6.65;4.05;;;11.00;99.90;;;;;;4844103;29;20037;-76
2021/12/02 10:11:50;;;;;;;6.03;3.80;;;11.00;99.90;;;;;;4860416;29;20038;-77
2021/12/02 10:14:23;;;;;;;8.27;4.53;;;11.00;99.90;;;;;;4862267;29;20045;-80
2021/12/02 10:17:04;;;;;;;9.85;5.55;;;11.00;99.90;;;;;;4860522;29;20252;-77
2021/12/02 10:19:30;;;;;;;11.55;5.45;;;11.00;99.90;;;;;;4843782;29;20483;-81
2021/12/02 10:22:09;;;;;;;8.52;5.43;;;11.00;99.90;;;;;;4860404;29;20038;-75
2021/12/02 10:24:43;;;;;;;11.27;5.13;;;10.90;99.90;;;;;;4860635;29;20029;-77
2021/12/02 10:27:10;;;;;;;8.77;5.70;;;10.90;99.90;;;;;;4875528;29;20494;-77
2021/12/02 10:29:39;;;;;;;11.77;6.07;;;10.90;99.90;;;;;;4860641;29;20036;-77
2021/12/02 10:32:13;;;;;;;16.80;7.32;;;10.90;99.90;;;;;;4877303;29;20044;-77
2021/12/02 10:34:49;;;;;;;25.67;7.28;;;10.90;99.90;;;;;;4878683;29;20041;-76
2021/12/02 10:37:18;;;;;;;16.60;6.35;;;10.90;99.90;;;;;;4861665;29;20033;-76
2021/12/02 10:40:05;;;;;;;21.10;10.18;;;10.90;99.90;;;;;;4860438;29;20116;-76
2021/12/02 10:42:34;;;;;;;17.42;11.52;;;10.80;99.90;;;;;;4860257;29;20025;-76
2021/12/02 10:45:02;;;;;;;15.90;10.07;;;10.80;99.90;;;;;;4860170;29;20033;-75
2021/12/02 10:47:29;;;;;;;15.63;9.02;;;10.70;99.90;;;;;;4861831;29;20038;-75
2021/12/02 10:49:58;;;;;;;12.45;5.88;;;10.70;99.90;;;;;;4859875;29;20495;-77
2021/12/02 10:52:26;;;;;;;13.98;8.35;;;10.70;99.90;;;;;;4859821;29;20408;-75
2021/12/02 10:55:02;;;;;;;12.95;9.63;;;10.80;99.90;;;;;;4843192;29;20040;-75
2021/12/02 10:57:29;;;;;;;15.57;9.13;;;10.70;99.90;;;;;;4859455;29;20029;-75
2021/12/02 11:00:00;;;;;;;14.30;7.30;;;10.70;99.90;;;;;;4859888;29;20029;-78
2021/12/02 11:02:31;;;;;;;14.55;7.53;;;10.70;99.90;;;;;;4859973;29;20077;-76
2021/12/02 11:05:00;;;;;;;16.38;8.75;;;10.60;99.90;;;;;;4859725;29;20038;-76
2021/12/02 11:07:29;;;;;;;15.35;8.13;;;10.60;99.90;;;;;;4841659;29;20097;-75
2021/12/02 11:09:58;;;;;;;24.33;9.13;;;10.60;99.90;;;;;;4862649;29;21552;-76
2021/12/02 11:12:33;;;;;;;28.52;15.07;;;10.60;99.90;;;;;;4841809;29;20159;-76
2021/12/02 11:15:01;;;;;;;15.55;9.38;;;10.60;99.90;;;;;;4861001;29;20045;-77
2021/12/02 11:17:30;;;;;;;13.35;8.43;;;10.60;99.90;;;;;;4865803;29;20113;-80
2021/12/02 11:19:57;;;;;;;18.08;9.32;;;10.60;99.90;;;;;;4863008;29;20108;-76
2021/12/02 11:22:25;;;;;;;14.35;8.07;;;10.60;99.90;;;;;;4845728;29;20400;-76
2021/12/02 11:24:51;;;;;;;18.13;11.30;;;10.50;99.90;;;;;;4846649;29;20352;-77
2021/12/02 11:27:21;;;;;;;19.40;11.48;;;10.60;99.90;;;;;;4862118;29;20037;-75
2021/12/02 11:29:47;;;;;;;18.58;10.82;;;10.60;99.90;;;;;;4871280;29;20040;-76
2021/12/02 11:32:41;;;;;;;22.92;13.05;;;10.60;99.90;;;;;;4861819;29;20049;-76
2021/12/02 11:35:22;;;;;;;27.92;16.63;;;10.60;99.90;;;;;;4861900;29;20084;-76
2021/12/02 11:37:51;;;;;;;28.30;18.25;;;10.60;99.90;;;;;;4861380;29;20404;-78
2021/12/02 11:40:26;;;;;;;28.02;18.67;;;10.70;99.90;;;;;;4862560;29;20052;-74
2021/12/02 11:42:53;;;;;;;22.17;13.55;;;10.60;99.90;;;;;;4871079;29;20022;-75
2021/12/02 11:45:22;;;;;;;17.27;12.05;;;10.60;99.90;;;;;;4861589;29;20482;-78
2021/12/02 11:47:49;;;;;;;18.95;10.73;;;10.60;99.90;;;;;;4861064;29;20038;-74
2021/12/02 11:50:18;;;;;;;18.02;10.20;;;10.60;99.90;;;;;;4861228;29;20023;-74
2021/12/02 11:52:44;;;;;;;13.70;9.50;;;10.50;99.90;;;;;;4863988;29;20152;-74
2021/12/02 11:55:15;;;;;;;16.88;9.35;;;10.50;99.90;;;;;;4862541;29;20048;-76
2021/12/02 11:57:41;;;;;;;16.50;9.43;;;10.50;99.90;;;;;;4863046;29;20065;-74
2021/12/02 12:00:13;;;;;;;21.63;10.93;;;10.50;99.90;;;;;;4847570;29;20036;-75
2021/12/02 12:02:54;;;;;;;17.60;9.45;;;10.40;99.90;;;;;;4861128;29;20112;-77
2021/12/02 12:05:25;;;;;;;17.67;8.88;;;10.40;99.90;;;;;;4846303;29;20065;-74
2021/12/02 12:07:51;;;;;;;17.33;9.13;;;10.50;99.90;;;;;;4861225;29;20392;-75
2021/12/02 12:10:17;;;;;;;20.13;8.77;;;10.50;99.90;;;;;;4861517;29;20045;-75
2021/12/02 12:12:44;;;;;;;22.90;9.77;;;10.40;99.90;;;;;;4861643;29;20045;-74
2021/12/02 12:15:41;;;;;;;16.75;8.60;;;10.40;99.90;;;;;;4870862;29;20033;-75
2021/12/02 12:18:10;;;;;;;18.15;11.18;;;10.30;99.90;;;;;;4844678;29;20030;-75
2021/12/02 12:20:57;;;;;;;17.27;8.25;;;10.40;99.90;;;;;;4860502;29;20037;-77
2021/12/02 12:23:33;;;;;;;14.00;7.22;;;10.40;99.90;;;;;;4872335;29;20045;-75
2021/12/02 12:26:18;;;;;;;10.00;7.35;;;10.30;99.90;;;;;;4860318;29;20506;-75
2021/12/02 12:29:09;;;;;;;12.02;6.80;;;10.40;99.90;;;;;;4863977;29;20045;-74
2021/12/02 12:31:57;;;;;;;10.30;4.80;;;10.50;99.90;;;;;;4860966;29;20072;-78
2021/12/02 12:36:55;;;;;;;14.63;6.30;;;10.50;99.90;;;;;;4861112;29;20034;-76
2021/12/02 12:39:24;;;;;;;10.52;6.38;;;10.40;99.90;;;;;;4844586;29;20049;-78
2021/12/02 12:42:12;;;;;;;15.93;7.22;;;10.40;99.90;;;;;;4861165;29;20594;-74
2021/12/02 12:44:56;;;;;;;12.98;7.68;;;10.40;99.90;;;;;;4861649;29;20040;-76
2021/12/02 12:47:39;;;;;;;16.33;9.13;;;10.40;99.90;;;;;;4861215;29;20038;-76
2021/12/02 12:50:32;;;;;;;11.23;8.25;;;10.40;99.90;;;;;;4860260;29;20040;-74
2021/12/02 12:53:04;;;;;;;17.27;8.57;;;10.50;99.90;;;;;;4858425;29;20049;-76
2021/12/02 12:55:41;;;;;;;45.42;27.38;;;10.50;99.90;;;;;;4862112;29;20383;-76
2021/12/02 12:58:17;;;;;;;69.88;42.42;;;10.40;99.90;;;;;;4840527;29;20046;-75
2021/12/02 13:00:51;;;;;;;32.00;19.95;;;10.30;99.90;;;;;;4860607;29;20034;-75
2021/12/02 13:03:48;;;;;;;36.38;24.30;;;10.30;99.90;;;;;;4860611;29;20586;-77
2021/12/02 13:06:23;;;;;;;20.13;9.63;;;10.30;99.90;;;;;;4858902;29;20045;-74